createdAt,value
2022-10-18T00:01:36.147Z,7.74
2022-10-18T00:04:05.354Z,7.48
2022-10-18T00:06:37.667Z,7.44
2022-10-18T00:09:08.072Z,7.29
2022-10-18T00:11:38.132Z,7.49
2022-10-18T00:14:06.285Z,7.55
2022-10-18T00:16:38.479Z,7.54
2022-10-18T00:19:07.638Z,7.33
2022-10-18T00:21:35.570Z,7.47
2022-10-18T00:24:06.550Z,7.20
2022-10-18T00:26:34.428Z,7.56
2022-10-18T00:29:04.442Z,7.55
2022-10-18T00:31:40.328Z,7.46
2022-10-18T00:34:13.068Z,7.59
2022-10-18T00:36:45.417Z,7.47
2022-10-18T00:39:17.256Z,7.47
2022-10-18T00:41:50.226Z,7.61
2022-10-18T00:44:55.125Z,7.44
2022-10-18T00:47:27.167Z,7.22
2022-10-18T00:49:59.559Z,7.43
2022-10-18T00:52:36.810Z,7.45
2022-10-18T00:55:05.954Z,7.27
2022-10-18T00:57:34.621Z,7.40
2022-10-18T01:00:03.088Z,7.36
2022-10-18T01:02:33.785Z,7.25
2022-10-18T01:05:03.339Z,7.31
2022-10-18T01:07:59.031Z,7.28
2022-10-18T01:10:34.186Z,7.23
2022-10-18T01:13:17.147Z,7.18
2022-10-18T01:16:01.551Z,7.22
2022-10-18T01:18:42.673Z,7.24
2022-10-18T01:21:21.797Z,7.40
2022-10-18T01:24:18.296Z,7.27
2022-10-18T01:27:08.526Z,7.53
2022-10-18T01:29:48.878Z,7.70
2022-10-18T01:32:24.824Z,7.64
2022-10-18T01:34:59.384Z,7.58
2022-10-18T01:37:29.528Z,7.27
2022-10-18T01:40:03.629Z,7.06
2022-10-18T01:42:34.040Z,6.95
2022-10-18T01:45:05.500Z,7.22
2022-10-18T01:47:38.416Z,7.27
2022-10-18T01:50:07.712Z,6.96
2022-10-18T01:52:35.542Z,7.36
2022-10-18T01:55:07.493Z,7.25
2022-10-18T01:57:41.668Z,7.22
2022-10-18T02:00:17.913Z,7.08
2022-10-18T02:02:53.976Z,6.84
2022-10-18T02:05:32.266Z,7.19
2022-10-18T02:08:12.576Z,6.95
2022-10-18T02:10:52.614Z,7.07
2022-10-18T02:13:25.892Z,7.38
2022-10-18T02:16:00.526Z,7.56
2022-10-18T02:18:38.109Z,7.36
2022-10-18T02:21:11.656Z,7.17
2022-10-18T02:23:41.894Z,7.42
2022-10-18T02:26:09.696Z,7.23
2022-10-18T02:28:39.429Z,6.73
2022-10-18T02:31:16.680Z,7.41
2022-10-18T02:33:52.914Z,7.22
2022-10-18T02:36:25.275Z,7.29
2022-10-18T02:38:59.521Z,7.39
2022-10-18T02:41:31.587Z,7.28
2022-10-18T02:43:59.614Z,7.08
2022-10-18T02:46:29.432Z,7.19
2022-10-18T02:48:58.782Z,7.06
2022-10-18T02:51:26.720Z,7.17
2022-10-18T02:53:56.327Z,7.02
2022-10-18T02:56:26.316Z,6.73
2022-10-18T02:58:54.113Z,7.12
2022-10-18T03:01:23.876Z,7.09
2022-10-18T03:03:54.196Z,6.95
2022-10-18T03:06:27.608Z,6.95
2022-10-18T03:08:55.408Z,6.84
2022-10-18T03:11:23.666Z,7.04
2022-10-18T03:13:55.498Z,6.95
2022-10-18T03:16:23.299Z,6.61
2022-10-18T03:18:51.034Z,6.80
2022-10-18T03:21:23.026Z,6.68
2022-10-18T03:23:52.270Z,6.85
2022-10-18T03:26:21.523Z,6.70
2022-10-18T03:28:53.623Z,7.04
2022-10-18T03:31:21.572Z,7.01
2022-10-18T03:33:49.460Z,6.95
2022-10-18T03:36:19.534Z,7.05
2022-10-18T03:38:47.307Z,6.65
2022-10-18T03:41:16.513Z,6.99
2022-10-18T03:43:48.395Z,6.80
2022-10-18T03:46:16.187Z,7.09
2022-10-18T03:48:43.929Z,7.10
2022-10-18T03:51:15.838Z,6.75
2022-10-18T03:53:43.691Z,6.66
2022-10-18T03:56:11.492Z,6.78
2022-10-18T03:58:44.343Z,6.81
2022-10-18T04:01:12.247Z,6.98
2022-10-18T04:03:40.071Z,6.97
2022-10-18T04:06:11.948Z,6.68
2022-10-18T04:08:39.731Z,6.92
2022-10-18T04:11:09.943Z,6.90
2022-10-18T04:13:43.577Z,7.02
2022-10-18T04:16:11.369Z,7.13
2022-10-18T04:18:39.273Z,6.98
2022-10-18T04:21:11.276Z,7.05
2022-10-18T04:23:41.348Z,6.60
2022-10-18T04:26:09.213Z,6.64
2022-10-18T04:28:41.779Z,6.91
2022-10-18T04:31:13.050Z,6.78
2022-10-18T04:33:40.949Z,6.64
2022-10-18T04:36:10.824Z,6.82
2022-10-18T04:38:43.063Z,6.82
2022-10-18T04:41:10.814Z,6.75
2022-10-18T04:43:40.493Z,6.43
2022-10-18T04:46:11.943Z,6.82
2022-10-18T04:48:40.360Z,6.33
2022-10-18T04:51:09.984Z,6.91
2022-10-18T04:53:39.979Z,6.78
2022-10-18T04:56:08.685Z,6.61
2022-10-18T04:58:38.345Z,6.61
2022-10-18T05:01:08.917Z,6.76
2022-10-18T05:03:37.868Z,6.84
2022-10-18T05:06:08.326Z,6.69
2022-10-18T05:08:36.263Z,6.69
2022-10-18T05:11:04.811Z,6.89
2022-10-18T05:13:34.542Z,6.70
2022-10-18T05:16:04.784Z,6.59
2022-10-18T05:18:33.071Z,6.72
2022-10-18T05:21:04.073Z,6.91
2022-10-18T05:23:32.062Z,6.82
2022-10-18T05:26:03.284Z,6.83
2022-10-18T05:28:39.279Z,7.00
2022-10-18T05:31:11.862Z,6.74
2022-10-18T05:33:41.697Z,6.78
2022-10-18T05:36:13.491Z,6.98
2022-10-18T05:38:43.414Z,6.91
2022-10-18T05:41:12.255Z,6.80
2022-10-18T05:43:42.316Z,6.93
2022-10-18T05:46:15.405Z,7.02
2022-10-18T05:48:50.208Z,6.79
2022-10-18T05:51:21.645Z,6.96
2022-10-18T05:53:52.994Z,6.90
2022-10-18T05:56:20.793Z,6.74
2022-10-18T05:58:53.401Z,6.46
2022-10-18T06:01:21.437Z,6.66
2022-10-18T06:03:49.166Z,6.73
2022-10-18T06:06:18.864Z,6.30
2022-10-18T06:08:51.241Z,6.88
2022-10-18T06:11:24.652Z,6.48
2022-10-18T06:13:53.379Z,6.63
2022-10-18T06:16:22.815Z,6.91
2022-10-18T06:18:56.661Z,6.96
2022-10-18T06:21:25.453Z,6.84
2022-10-18T06:24:00.683Z,6.81
2022-10-18T06:26:30.756Z,7.12
2022-10-18T06:28:58.538Z,7.01
2022-10-18T06:31:28.621Z,7.10
2022-10-18T06:33:57.280Z,7.01
2022-10-18T06:36:25.428Z,7.23
2022-10-18T06:38:57.954Z,7.11
2022-10-18T06:41:29.882Z,7.12
2022-10-18T06:43:58.666Z,7.04
2022-10-18T06:46:27.472Z,7.27
2022-10-18T06:48:59.571Z,7.15
2022-10-18T06:51:27.387Z,7.01
2022-10-18T06:54:16.739Z,7.08
2022-10-18T06:56:44.672Z,7.04
2022-10-18T06:59:12.458Z,7.30
2022-10-18T07:01:40.271Z,6.97
2022-10-18T07:04:12.326Z,7.15
2022-10-18T07:06:40.103Z,7.01
2022-10-18T07:09:09.222Z,7.10
2022-10-18T07:11:37.140Z,7.20
2022-10-18T07:14:05.262Z,7.30
2022-10-18T07:16:34.182Z,6.92
2022-10-18T07:19:02.116Z,7.24
2022-10-18T07:21:30.151Z,7.47
2022-10-18T07:23:58.140Z,7.51
2022-10-18T07:26:30.234Z,7.75
2022-10-18T07:29:00.561Z,7.85
2022-10-18T07:31:29.232Z,8.03
2022-10-18T07:33:58.948Z,8.24
2022-10-18T07:36:27.479Z,7.97
2022-10-18T07:38:55.679Z,7.70
2022-10-18T07:41:24.164Z,7.92
2022-10-18T07:43:54.004Z,8.16
2022-10-18T07:46:24.121Z,8.17
2022-10-18T07:48:54.593Z,7.94
2022-10-18T07:51:23.422Z,8.02
2022-10-18T07:53:53.434Z,8.05
2022-10-18T07:56:22.424Z,8.15
2022-10-18T07:58:52.349Z,8.18
2022-10-18T08:01:22.935Z,8.07
2022-10-18T08:03:51.180Z,8.32
2022-10-18T08:06:20.224Z,8.06
2022-10-18T08:08:52.308Z,8.19
2022-10-18T08:11:22.025Z,8.35
2022-10-18T08:13:50.483Z,8.42
2022-10-18T08:16:20.602Z,8.54
2022-10-18T08:18:49.970Z,8.43
2022-10-18T08:21:19.660Z,8.31
2022-10-18T08:23:52.389Z,8.42
2022-10-18T08:26:22.643Z,8.28
2022-10-18T08:29:10.331Z,8.31
2022-10-18T08:31:41.050Z,8.37
2022-10-18T08:34:14.859Z,8.45
2022-10-18T08:36:46.528Z,8.20
2022-10-18T08:39:14.470Z,8.31
2022-10-18T08:42:16.899Z,8.68
2022-10-18T08:44:47.130Z,8.80
2022-10-18T08:47:21.700Z,9.01
2022-10-18T08:49:52.956Z,8.60
2022-10-18T08:52:34.559Z,8.57
2022-10-18T08:55:11.299Z,8.56
2022-10-18T08:57:39.169Z,8.64
2022-10-18T09:00:15.912Z,8.52
2022-10-18T09:03:01.446Z,8.61
2022-10-18T09:05:41.214Z,8.43
2022-10-18T09:08:36.312Z,8.49
2022-10-18T09:11:15.868Z,8.57
2022-10-18T09:14:04.273Z,8.66
2022-10-18T09:16:40.786Z,8.60
2022-10-18T09:19:18.784Z,8.88
2022-10-18T09:21:53.700Z,8.97
2022-10-18T09:24:29.224Z,8.79
2022-10-18T09:27:05.802Z,8.73
2022-10-18T09:29:59.718Z,8.99
2022-10-18T09:32:37.220Z,8.87
2022-10-18T09:35:15.103Z,8.93
2022-10-18T09:37:45.597Z,8.82
2022-10-18T09:40:19.013Z,8.93
2022-10-18T09:42:55.515Z,9.21
2022-10-18T09:45:30.877Z,8.84
2022-10-18T09:48:06.898Z,8.68
2022-10-18T09:50:41.401Z,9.25
2022-10-18T09:53:19.544Z,9.15
2022-10-18T09:56:00.275Z,8.98
2022-10-18T09:58:35.305Z,9.02
2022-10-18T10:01:03.418Z,9.39
2022-10-18T10:03:31.635Z,9.69
2022-10-18T10:06:18.677Z,9.49
2022-10-18T10:08:56.498Z,9.28
2022-10-18T10:11:32.274Z,9.47
2022-10-18T10:14:09.362Z,9.43
2022-10-18T10:16:54.725Z,9.38
2022-10-18T10:19:31.721Z,9.30
2022-10-18T10:22:04.227Z,9.26
2022-10-18T10:24:47.735Z,9.52
2022-10-18T10:27:20.808Z,9.64
2022-10-18T10:29:57.710Z,9.65
2022-10-18T10:32:30.255Z,9.64
2022-10-18T10:35:00.594Z,9.35
2022-10-18T10:37:36.429Z,8.99
2022-10-18T10:40:26.366Z,9.10
2022-10-18T10:43:12.875Z,9.23
2022-10-18T10:46:09.140Z,9.09
2022-10-18T10:48:46.694Z,9.15
2022-10-18T10:51:19.721Z,9.33
2022-10-18T10:53:52.516Z,9.23
2022-10-18T10:56:33.397Z,9.28
2022-10-18T10:59:13.234Z,9.62
2022-10-18T11:01:41.715Z,9.49
2022-10-18T11:04:30.794Z,9.69
2022-10-18T11:07:07.356Z,9.18
2022-10-18T11:09:43.018Z,9.43
2022-10-18T11:12:25.732Z,9.32
2022-10-18T11:15:04.117Z,9.60
2022-10-18T11:17:41.073Z,9.02
2022-10-18T11:20:24.259Z,9.02
2022-10-18T11:23:00.989Z,8.92
2022-10-18T11:26:01.135Z,8.70
2022-10-18T11:28:43.444Z,9.13
2022-10-18T11:31:21.076Z,9.18
2022-10-18T11:34:08.788Z,8.84
2022-10-18T11:36:56.060Z,8.82
2022-10-18T11:39:33.365Z,9.25
2022-10-18T11:42:14.696Z,9.02
2022-10-18T11:44:52.423Z,8.89
2022-10-18T11:47:34.503Z,8.74
2022-10-18T11:50:13.867Z,8.95
2022-10-18T11:52:51.648Z,8.70
2022-10-18T11:55:37.377Z,8.62
2022-10-18T11:58:19.423Z,8.85
2022-10-18T12:00:53.494Z,9.11
2022-10-18T12:03:39.826Z,9.31
2022-10-18T12:06:16.635Z,9.25
2022-10-18T12:08:49.266Z,9.58
2022-10-18T12:11:20.602Z,9.66
2022-10-18T12:13:55.826Z,9.38
2022-10-18T12:16:49.864Z,9.12
2022-10-18T12:19:25.373Z,9.08
2022-10-18T12:21:56.130Z,9.23
2022-10-18T12:24:28.340Z,9.37
2022-10-18T12:27:01.836Z,9.25
2022-10-18T12:29:36.833Z,9.47
2022-10-18T12:32:12.520Z,9.05
2022-10-18T12:34:45.924Z,9.24
2022-10-18T12:37:34.981Z,9.14
2022-10-18T12:40:11.484Z,8.96
2022-10-18T12:42:48.193Z,8.96
2022-10-18T12:45:26.797Z,8.88
2022-10-18T12:47:59.982Z,9.01
2022-10-18T12:50:35.059Z,8.71
2022-10-18T12:53:08.239Z,8.19
2022-10-18T12:55:40.123Z,8.47
2022-10-18T12:58:33.104Z,8.65
2022-10-18T13:01:03.780Z,8.60
2022-10-18T13:04:01.601Z,8.66
2022-10-18T13:07:18.900Z,8.61
2022-10-18T13:10:23.846Z,8.77
2022-10-18T13:13:13.177Z,8.63
2022-10-18T13:16:04.625Z,8.49
2022-10-18T13:18:46.019Z,8.64
2022-10-18T13:21:23.120Z,8.23
2022-10-18T13:24:05.349Z,8.58
2022-10-18T13:26:43.929Z,8.43
2022-10-18T13:29:31.972Z,8.59
2022-10-18T13:32:08.592Z,8.65
2022-10-18T13:34:39.130Z,8.56
2022-10-18T13:37:07.677Z,8.41
2022-10-18T13:39:37.492Z,8.21
2022-10-18T13:42:31.678Z,8.08
2022-10-18T13:45:36.823Z,8.16
2022-10-18T13:48:42.199Z,8.10
2022-10-18T13:51:37.660Z,8.11
2022-10-18T13:54:23.459Z,8.21
2022-10-18T13:57:13.933Z,8.15
2022-10-18T14:00:08.394Z,7.83
2022-10-18T14:02:57.711Z,8.11
2022-10-18T14:05:51.121Z,8.20
2022-10-18T14:08:29.082Z,8.17
2022-10-18T14:11:04.114Z,8.26
2022-10-18T14:13:42.759Z,8.15
2022-10-18T14:16:28.079Z,8.19
2022-10-18T14:19:02.666Z,8.15
2022-10-18T14:21:37.358Z,8.31
2022-10-18T14:24:20.549Z,8.16
2022-10-18T14:26:48.489Z,8.24
2022-10-18T14:29:23.309Z,8.15
2022-10-18T14:31:54.318Z,8.32
2022-10-18T14:34:23.103Z,8.33
2022-10-18T14:36:53.476Z,8.31
2022-10-18T14:39:29.081Z,8.29
2022-10-18T14:41:58.598Z,7.82
2022-10-18T14:44:30.778Z,7.94
2022-10-18T14:47:03.728Z,8.05
2022-10-18T14:49:33.730Z,8.05
2022-10-18T14:52:01.871Z,7.68
2022-10-18T14:54:35.668Z,7.89
2022-10-18T14:57:05.639Z,7.87
2022-10-18T14:59:38.653Z,7.53
2022-10-18T15:02:17.748Z,7.72
2022-10-18T15:04:47.127Z,7.88
2022-10-18T15:07:18.517Z,7.57
2022-10-18T15:09:50.442Z,7.54
2022-10-18T15:12:19.140Z,7.77
2022-10-18T15:14:47.824Z,7.76
2022-10-18T15:17:21.514Z,7.68
2022-10-18T15:20:00.512Z,7.62
2022-10-18T15:22:35.292Z,7.71
2022-10-18T15:25:28.059Z,7.60
2022-10-18T15:28:01.651Z,7.55
2022-10-18T15:30:39.400Z,7.45
2022-10-18T15:33:09.921Z,7.56
2022-10-18T15:35:40.217Z,7.39
2022-10-18T15:38:18.566Z,6.99
2022-10-18T15:40:48.472Z,7.11
2022-10-18T15:43:36.995Z,7.22
2022-10-18T15:46:07.804Z,7.33
2022-10-18T15:48:40.875Z,6.91
2022-10-18T15:51:10.182Z,6.91
2022-10-18T15:53:46.234Z,6.92
2022-10-18T15:56:33.477Z,7.19
2022-10-18T15:59:04.166Z,7.48
2022-10-18T16:01:38.169Z,7.17
2022-10-18T16:04:14.127Z,7.34
2022-10-18T16:06:44.206Z,7.26
2022-10-18T16:09:16.581Z,7.19
2022-10-18T16:11:46.991Z,7.17
2022-10-18T16:14:14.810Z,7.11
2022-10-18T16:16:44.652Z,7.24
2022-10-18T16:19:15.928Z,6.85
2022-10-18T16:21:43.964Z,6.95
2022-10-18T16:24:14.531Z,6.67
2022-10-18T16:26:44.393Z,6.53
2022-10-18T16:29:17.324Z,6.48
2022-10-18T16:31:47.679Z,6.63
2022-10-18T16:34:17.702Z,6.70
2022-10-18T16:36:47.638Z,6.58
2022-10-18T16:39:17.622Z,6.29
2022-10-18T16:41:48.238Z,6.29
2022-10-18T16:44:20.035Z,6.23
2022-10-18T16:46:53.836Z,6.32
2022-10-18T16:49:27.807Z,6.31
2022-10-18T16:51:57.839Z,6.14
2022-10-18T16:54:25.686Z,6.18
2022-10-18T16:56:54.046Z,6.42
2022-10-18T16:59:27.138Z,6.27
2022-10-18T17:01:55.116Z,6.13
2022-10-18T17:04:23.224Z,6.07
2022-10-18T17:06:51.498Z,6.35
2022-10-18T17:09:21.101Z,6.68
2022-10-18T17:11:48.926Z,6.73
2022-10-18T17:14:16.714Z,6.29
2022-10-18T17:16:48.779Z,6.08
2022-10-18T17:19:21.018Z,6.08
2022-10-18T17:21:48.871Z,5.97
2022-10-18T17:24:16.677Z,6.20
2022-10-18T17:26:46.711Z,6.31
2022-10-18T17:29:16.565Z,6.07
2022-10-18T17:31:45.851Z,6.16
2022-10-18T17:34:21.552Z,6.16
2022-10-18T17:36:49.531Z,5.88
2022-10-18T17:39:17.990Z,6.23
2022-10-18T17:41:45.940Z,5.95
2022-10-18T17:44:13.955Z,6.12
2022-10-18T17:46:42.185Z,6.05
2022-10-18T17:49:11.571Z,5.90
2022-10-18T17:51:40.606Z,6.00
2022-10-18T17:54:08.515Z,5.68
2022-10-18T17:56:36.907Z,5.83
2022-10-18T17:59:04.829Z,5.72
2022-10-18T18:01:37.999Z,5.77
2022-10-18T18:04:11.823Z,5.75
2022-10-18T18:06:44.066Z,5.51
2022-10-18T18:09:14.315Z,5.74
2022-10-18T18:11:44.416Z,5.87
2022-10-18T18:14:12.928Z,5.71
2022-10-18T18:16:42.487Z,5.73
2022-10-18T18:19:21.497Z,5.48
2022-10-18T18:21:49.476Z,5.47
2022-10-18T18:24:20.134Z,5.30
2022-10-18T18:26:52.050Z,5.37
2022-10-18T18:29:20.362Z,5.15
2022-10-18T18:31:48.284Z,5.28
2022-10-18T18:37:19.266Z,5.25
2022-10-18T18:39:49.380Z,5.24
2022-10-18T18:42:17.328Z,5.43
2022-10-18T18:44:48.054Z,5.36
2022-10-18T18:47:22.021Z,5.30
2022-10-18T18:49:56.209Z,5.14
2022-10-18T18:52:27.007Z,5.18
2022-10-18T18:54:56.313Z,5.48
2022-10-18T18:57:27.789Z,5.34
2022-10-18T18:59:55.930Z,5.17
2022-10-18T19:02:23.891Z,5.01
2022-10-18T19:04:55.364Z,5.35
2022-10-18T19:07:25.619Z,5.44
2022-10-18T19:09:56.069Z,5.57
2022-10-18T19:12:27.947Z,5.50
2022-10-18T19:14:58.241Z,5.33
2022-10-18T19:17:26.671Z,5.57
2022-10-18T19:20:01.633Z,5.35
2022-10-18T19:22:29.596Z,5.07
2022-10-18T19:24:59.348Z,5.16
2022-10-18T19:27:32.114Z,5.18
2022-10-18T19:30:00.337Z,5.24
2022-10-18T19:35:06.854Z,5.18
2022-10-18T19:37:37.880Z,5.24
2022-10-18T19:40:10.451Z,4.98
2022-10-18T19:42:38.577Z,5.10
2022-10-18T19:45:07.715Z,5.13
2022-10-18T19:47:41.705Z,5.12
2022-10-18T19:50:11.229Z,4.84
2022-10-18T19:52:41.324Z,4.78
2022-10-18T19:55:11.676Z,4.63
2022-10-18T19:57:39.497Z,3.87
2022-10-18T20:00:11.343Z,4.86
2022-10-18T20:02:41.798Z,4.46
2022-10-18T20:05:15.642Z,4.66
2022-10-18T20:07:47.375Z,4.10
2022-10-18T20:10:15.450Z,4.05
2022-10-18T20:12:43.347Z,3.76
2022-10-18T20:15:12.232Z,3.97
2022-10-18T20:17:40.189Z,4.08
2022-10-18T20:20:14.865Z,4.30
2022-10-18T20:22:44.926Z,4.51
2022-10-18T20:25:12.741Z,4.49
2022-10-18T20:27:40.892Z,4.61
2022-10-18T20:30:11.603Z,4.80
2022-10-18T20:32:39.445Z,4.74
2022-10-18T20:35:07.998Z,4.98
2022-10-18T20:37:37.418Z,5.08
2022-10-18T20:40:05.692Z,4.64
2022-10-18T20:42:35.486Z,4.50
2022-10-18T20:45:07.752Z,4.90
2022-10-18T20:47:36.441Z,4.93
2022-10-18T20:50:06.791Z,4.73
2022-10-18T20:52:38.242Z,4.89
2022-10-18T20:55:06.800Z,4.79
2022-10-18T20:57:36.729Z,4.33
2022-10-18T21:00:10.033Z,4.61
2022-10-18T21:02:39.655Z,4.38
2022-10-18T21:05:10.203Z,4.59
2022-10-18T21:07:39.178Z,4.53
2022-10-18T21:10:08.029Z,4.26
2022-10-18T21:12:38.224Z,4.22
2022-10-18T21:15:07.279Z,4.53
2022-10-18T21:17:36.957Z,4.19
2022-10-18T21:20:08.680Z,4.18
2022-10-18T21:22:36.507Z,4.34
2022-10-18T21:25:08.705Z,4.26
2022-10-18T21:27:38.675Z,4.30
2022-10-18T21:30:06.982Z,4.31
2022-10-18T21:32:35.346Z,4.27
2022-10-18T21:35:06.439Z,4.21
2022-10-18T21:37:34.287Z,4.04
2022-10-18T21:40:08.455Z,3.97
2022-10-18T21:42:39.990Z,4.18
2022-10-18T21:45:09.116Z,4.15
2022-10-18T21:47:37.019Z,4.11
2022-10-18T21:50:05.069Z,4.14
2022-10-18T21:52:33.070Z,3.74
2022-10-18T21:55:01.048Z,4.08
2022-10-18T21:57:31.139Z,4.06
2022-10-18T22:00:02.870Z,4.06
2022-10-18T22:02:30.914Z,4.08
2022-10-18T22:04:59.168Z,4.02
2022-10-18T22:07:28.794Z,3.88
2022-10-18T22:09:56.538Z,3.98
2022-10-18T22:12:26.577Z,3.92
2022-10-18T22:14:56.273Z,3.92
2022-10-18T22:17:26.045Z,3.89
2022-10-18T22:19:56.188Z,3.87
2022-10-18T22:22:24.118Z,3.72
2022-10-18T22:24:51.960Z,3.91
2022-10-18T22:27:22.002Z,3.47
2022-10-18T22:29:51.672Z,3.20
2022-10-18T22:32:19.488Z,3.82
2022-10-18T22:34:48.777Z,3.57
2022-10-18T22:37:16.611Z,3.56
2022-10-18T22:39:44.391Z,3.69
2022-10-18T22:42:14.408Z,3.44
2022-10-18T22:44:42.380Z,3.78
2022-10-18T22:47:10.199Z,3.72
2022-10-18T22:49:40.177Z,3.56
2022-10-18T22:52:11.356Z,3.79
2022-10-18T22:54:39.162Z,3.78
2022-10-18T22:57:09.154Z,3.73
2022-10-18T22:59:38.898Z,3.69
2022-10-18T23:02:06.645Z,3.29
2022-10-18T23:04:36.744Z,3.62
2022-10-18T23:07:06.547Z,3.66
2022-10-18T23:09:35.880Z,3.66
2022-10-18T23:12:05.889Z,3.51
2022-10-18T23:14:35.561Z,3.65
2022-10-18T23:17:03.383Z,3.39
2022-10-18T23:19:33.518Z,3.51
2022-10-18T23:22:03.210Z,3.53
2022-10-18T23:24:31.344Z,3.45
2022-10-18T23:27:04.443Z,3.36
2022-10-18T23:29:32.288Z,3.20
2022-10-18T23:32:00.090Z,3.41
2022-10-18T23:34:32.115Z,3.16
2022-10-18T23:36:59.959Z,3.50
2022-10-18T23:39:28.306Z,3.44
2022-10-18T23:42:00.223Z,3.26
2022-10-18T23:44:29.346Z,3.25
2022-10-18T23:46:57.156Z,3.20
2022-10-18T23:49:29.000Z,2.89
2022-10-18T23:51:57.051Z,3.28
2022-10-18T23:54:24.864Z,3.28
2022-10-18T23:56:56.808Z,3.29
2022-10-18T23:59:24.716Z,3.12
